Time;durP1;ratioP1;P1;durP2;ratioP2;P2;SDS_P1;SDS_P2;PMS_P1;PMS_P2;Temp;Humidity;BMP_temperature;BMP_pressure;BME280_temperature;BME280_humidity;BME280_pressure;Samples;Min_cycle;Max_cycle;Signal;HPM_P1;HPM_P2
2023/07/14 00:01:20;;;;;;;1.42;1.27;;;;;;;22.56;48.40;101433.47;4976617;28;99531;-69
2023/07/14 00:03:48;;;;;;;2.83;1.50;;;;;;;22.35;48.55;101432.38;4983112;28;97216;-69
2023/07/14 00:06:15;;;;;;;2.97;1.30;;;;;;;22.43;48.46;101427.28;4980147;28;99214;-69
2023/07/14 00:08:42;;;;;;;2.03;1.60;;;;;;;22.39;48.46;101430.28;4976034;28;99156;-70
2023/07/14 00:11:13;;;;;;;4.95;1.58;;;;;;;22.44;48.52;101423.63;4988122;28;99282;-70
2023/07/14 00:13:39;;;;;;;1.48;1.25;;;;;;;22.43;48.44;101421.91;4987351;28;97196;-70
2023/07/14 00:16:13;;;;;;;3.30;1.60;;;;;;;22.30;49.04;101415.69;4989569;28;96941;-70
2023/07/14 00:18:41;;;;;;;3.28;1.40;;;;;;;22.58;48.25;101412.66;4990631;28;102194;-70
2023/07/14 00:21:15;;;;;;;6.38;1.42;;;;;;;22.59;48.47;101417.06;4992193;28;98874;-69
2023/07/14 00:23:42;;;;;;;3.13;2.15;;;;;;;22.66;48.11;101412.94;4983258;28;96845;-69
2023/07/14 00:26:14;;;;;;;2.50;1.42;;;;;;;22.73;47.78;101416.06;4988866;28;97407;-69
2023/07/14 00:28:40;;;;;;;2.58;1.50;;;;;;;22.59;48.28;101414.38;4988384;28;99277;-69
2023/07/14 00:31:10;;;;;;;3.97;1.40;;;;;;;22.33;49.22;101415.47;4991822;28;99382;-69
2023/07/14 00:33:42;;;;;;;2.95;1.48;;;;;;;22.05;49.66;101421.16;4987966;28;97662;-69
2023/07/14 00:36:09;;;;;;;2.88;1.67;;;;;;;22.24;49.21;101421.53;4985821;28;98393;-69
2023/07/14 00:38:35;;;;;;;5.03;1.98;;;;;;;22.31;49.28;101422.81;4986628;28;103020;-69
2023/07/14 00:41:02;;;;;;;4.10;1.48;;;;;;;22.04;50.12;101424.81;4988571;28;100794;-69
2023/07/14 00:43:31;;;;;;;3.20;1.77;;;;;;;22.18;50.06;101422.00;4990406;28;96799;-70
2023/07/14 00:45:59;;;;;;;2.05;1.58;;;;;;;22.23;50.12;101409.91;4980999;28;98873;-70
2023/07/14 00:48:29;;;;;;;4.00;2.00;;;;;;;22.19;49.83;101419.16;4986583;28;99000;-70
2023/07/14 00:51:01;;;;;;;4.03;1.70;;;;;;;22.11;50.33;101409.97;4974477;28;99975;-70
2023/07/14 00:53:32;;;;;;;5.00;2.08;;;;;;;22.11;50.28;101410.81;4979161;28;98610;-69
2023/07/14 00:56:19;;;;;;;3.60;1.95;;;;;;;22.27;49.94;101415.91;4976489;28;99383;-70
2023/07/14 00:58:49;;;;;;;4.90;1.95;;;;;;;21.90;50.99;101414.16;4971315;28;100391;-70
2023/07/14 01:01:21;;;;;;;3.63;1.65;;;;;;;22.23;50.47;101414.44;4974054;28;99223;-69
2023/07/14 01:03:49;;;;;;;2.83;1.90;;;;;;;22.18;50.62;101416.59;4976169;28;98980;-70
2023/07/14 01:06:20;;;;;;;2.60;1.67;;;;;;;22.12;50.62;101414.38;4973770;28;100953;-70
2023/07/14 01:08:53;;;;;;;3.05;1.70;;;;;;;21.81;51.55;101413.84;4976264;28;99006;-71
2023/07/14 01:11:24;;;;;;;3.50;2.00;;;;;;;21.95;51.36;101415.56;4981635;28;98959;-70
2023/07/14 01:13:51;;;;;;;2.60;1.95;;;;;;;21.99;51.32;101414.38;4982137;28;96828;-70
2023/07/14 01:16:19;;;;;;;3.35;2.08;;;;;;;21.88;51.39;101414.28;4988336;28;96970;-69
2023/07/14 01:18:47;;;;;;;5.47;2.58;;;;;;;22.02;51.27;101419.56;4987689;28;99008;-69
2023/07/14 01:21:14;;;;;;;4.95;2.30;;;;;;;21.90;51.70;101419.53;4985305;28;99155;-70
2023/07/14 01:23:55;;;;;;;5.40;2.38;;;;;;;22.03;51.41;101412.34;4986824;28;96769;-70
2023/07/14 01:26:34;;;;;;;3.53;1.88;;;;;;;21.84;51.99;101415.47;4987573;28;98442;-70
2023/07/14 01:29:03;;;;;;;4.30;2.25;;;;;;;21.69;52.38;101422.81;4990732;28;97704;-70
2023/07/14 01:31:30;;;;;;;4.32;1.80;;;;;;;21.90;51.95;101423.09;4983683;28;99227;-71
2023/07/14 01:33:57;;;;;;;3.55;2.20;;;;;;;21.74;52.39;101417.94;4985685;28;96743;-70
2023/07/14 01:36:25;;;;;;;4.60;2.17;;;;;;;21.75;52.14;101414.28;4987850;28;97926;-70
2023/07/14 01:38:53;;;;;;;3.35;2.50;;;;;;;21.75;52.54;101418.81;4988835;28;99131;-69
2023/07/14 01:41:20;;;;;;;3.22;2.17;;;;;;;21.63;52.42;101420.56;4985955;28;98981;-70
2023/07/14 01:43:48;;;;;;;3.17;2.20;;;;;;;21.69;52.61;101421.94;4984802;28;97068;-70
2023/07/14 01:46:19;;;;;;;17.65;2.35;;;;;;;21.80;52.29;101425.56;4980121;28;97031;-71
2023/07/14 01:49:02;;;;;;;6.15;2.85;;;;;;;22.01;51.74;101423.22;4973135;28;101493;-71
2023/07/14 01:51:32;;;;;;;4.57;2.17;;;;;;;21.70;52.32;101424.53;4976088;28;99289;-70
2023/07/14 01:54:04;;;;;;;9.65;2.50;;;;;;;21.78;52.30;101440.13;4976255;28;98280;-71
2023/07/14 01:56:33;;;;;;;2.03;1.85;;;;;;;21.78;52.12;101432.06;4974207;28;97803;-71
2023/07/14 01:59:07;;;;;;;4.13;2.15;;;;;;;21.86;51.82;101433.19;4978063;28;101410;-70
2023/07/14 02:01:37;;;;;;;4.28;1.92;;;;;;;21.80;51.97;101432.78;4976748;28;98801;-72
2023/07/14 02:04:07;;;;;;;6.63;2.28;;;;;;;21.75;52.52;101437.63;4973284;28;98745;-71
2023/07/14 02:06:34;;;;;;;3.15;1.77;;;;;;;21.79;52.71;101442.69;4977657;28;98145;-72
2023/07/14 02:09:01;;;;;;;7.68;2.38;;;;;;;21.60;53.36;101439.56;4973886;28;99149;-71
2023/07/14 02:11:28;;;;;;;3.05;1.75;;;;;;;21.64;53.25;101440.25;4984378;28;99308;-71
2023/07/14 02:13:56;;;;;;;3.15;1.98;;;;;;;21.68;53.29;101437.22;4987989;28;96836;-70
2023/07/14 02:16:24;;;;;;;3.67;2.00;;;;;;;21.60;53.56;101438.72;4985050;28;97161;-70
2023/07/14 02:18:54;;;;;;;3.22;2.10;;;;;;;21.66;53.49;101435.63;4975791;28;98990;-69
2023/07/14 02:21:28;;;;;;;6.07;1.92;;;;;;;21.67;53.72;101442.69;4972754;28;99255;-70
2023/07/14 02:23:55;;;;;;;2.45;2.08;;;;;;;21.48;54.20;101445.81;4976747;28;97379;-69
2023/07/14 02:26:28;;;;;;;3.72;2.05;;;;;;;21.34;54.52;101444.09;4975437;28;97635;-70
2023/07/14 02:28:56;;;;;;;3.53;2.22;;;;;;;21.34;54.59;101460.22;4973869;28;99307;-69
2023/07/14 02:31:30;;;;;;;5.18;1.90;;;;;;;21.44;54.26;101453.25;4974681;28;98282;-70
2023/07/14 02:34:00;;;;;;;3.33;2.57;;;;;;;21.27;54.87;101463.44;4975924;28;98595;-70
2023/07/14 02:36:37;;;;;;;4.53;2.97;;;;;;;21.27;55.23;101468.81;4973714;28;99011;-71
2023/07/14 02:39:05;;;;;;;4.22;2.83;;;;;;;21.36;54.69;101466.38;4970122;28;101589;-70
2023/07/14 02:41:37;;;;;;;4.38;2.22;;;;;;;21.30;55.04;101472.16;4981392;28;98482;-70
2023/07/14 02:44:10;;;;;;;3.65;2.00;;;;;;;21.20;55.25;101464.84;4987539;28;97346;-70
2023/07/14 02:46:43;;;;;;;3.55;2.33;;;;;;;21.07;55.52;101462.94;4992429;28;96863;-71
2023/07/14 02:49:12;;;;;;;4.63;2.22;;;;;;;21.12;55.85;101469.84;4985796;28;98527;-70
2023/07/14 02:51:38;;;;;;;3.97;2.50;;;;;;;21.19;55.36;101476.56;4986789;28;99132;-70
2023/07/14 02:54:05;;;;;;;3.83;2.38;;;;;;;21.04;56.06;101481.97;4979892;28;98336;-71
2023/07/14 02:56:32;;;;;;;5.38;2.55;;;;;;;20.98;56.19;101477.03;4981289;28;96976;-70
2023/07/14 02:58:59;;;;;;;4.78;2.80;;;;;;;20.90;56.37;101473.13;4977215;28;97576;-70
2023/07/14 03:01:25;;;;;;;3.92;2.50;;;;;;;21.09;56.12;101474.44;4989196;28;98912;-70
2023/07/14 03:03:53;;;;;;;7.68;2.58;;;;;;;21.17;56.35;101481.16;4985875;28;99062;-69
2023/07/14 03:06:22;;;;;;;4.55;2.15;;;;;;;21.10;56.71;101475.31;4986927;28;97071;-69
2023/07/14 03:08:49;;;;;;;2.67;2.30;;;;;;;21.28;56.02;101478.59;4989327;28;101449;-70
2023/07/14 03:11:15;;;;;;;4.60;2.47;;;;;;;21.06;56.23;101489.94;4986199;28;98927;-70
2023/07/14 03:13:46;;;;;;;4.00;2.45;;;;;;;21.01;56.30;101487.53;4989793;28;97072;-70
2023/07/14 03:16:13;;;;;;;3.35;2.35;;;;;;;21.22;56.30;101487.09;4995635;28;96981;-69
2023/07/14 03:18:39;;;;;;;3.70;2.63;;;;;;;21.12;56.71;101483.28;4979435;28;99097;-70
2023/07/14 03:21:06;;;;;;;5.03;2.70;;;;;;;21.47;55.47;101489.81;4979917;28;99182;-69
2023/07/14 03:23:34;;;;;;;6.68;2.75;;;;;;;21.33;55.58;101487.22;4978723;28;99512;-70
2023/07/14 03:26:03;;;;;;;5.78;2.45;;;;;;;21.41;55.78;101479.47;4977011;28;96945;-69
2023/07/14 03:28:30;;;;;;;5.43;2.40;;;;;;;21.54;55.39;101476.78;4976539;28;98616;-70
2023/07/14 03:30:57;;;;;;;4.80;2.67;;;;;;;21.35;55.99;101482.59;4977770;28;99416;-71
2023/07/14 03:33:24;;;;;;;6.43;2.90;;;;;;;21.43;55.72;101483.78;4977248;28;97051;-70
2023/07/14 03:35:51;;;;;;;4.68;2.35;;;;;;;21.69;54.71;101484.66;4977215;28;96919;-70
2023/07/14 03:38:18;;;;;;;2.55;2.35;;;;;;;21.43;55.54;101489.16;4977192;28;99261;-72
2023/07/14 03:40:46;;;;;;;2.83;2.40;;;;;;;21.47;55.48;101485.28;4977816;28;99273;-71
2023/07/14 03:43:12;;;;;;;4.72;2.70;;;;;;;21.64;55.19;101486.81;4987874;28;98384;-72
2023/07/14 03:45:39;;;;;;;4.68;2.47;;;;;;;21.57;55.10;101485.53;4984851;28;96891;-70
2023/07/14 03:48:06;;;;;;;5.60;2.40;;;;;;;21.60;55.25;101479.91;4981893;28;99377;-70
2023/07/14 03:50:32;;;;;;;7.85;2.60;;;;;;;21.67;54.99;101478.53;4987695;28;102346;-70
2023/07/14 03:52:59;;;;;;;7.85;2.95;;;;;;;21.76;54.49;101483.28;4990573;28;100764;-71
2023/07/14 03:55:25;;;;;;;5.22;2.33;;;;;;;21.80;54.29;101481.22;4988125;28;96880;-70
2023/07/14 03:57:53;;;;;;;5.38;2.42;;;;;;;21.72;54.58;101484.47;4975522;28;99064;-70
2023/07/14 04:00:21;;;;;;;3.83;2.60;;;;;;;21.76;54.90;101474.34;4976196;28;99266;-70
2023/07/14 04:02:47;;;;;;;5.43;2.95;;;;;;;21.71;54.85;101471.13;4975584;28;98623;-70
2023/07/14 04:05:14;;;;;;;7.07;2.70;;;;;;;21.70;54.97;101475.63;4979731;28;98687;-70
2023/07/14 04:07:43;;;;;;;8.82;3.13;;;;;;;21.72;55.06;101479.09;4980974;28;99139;-70
2023/07/14 04:10:11;;;;;;;10.82;3.40;;;;;;;21.57;55.66;101480.16;4978441;28;101035;-72
2023/07/14 04:12:38;;;;;;;4.35;2.83;;;;;;;21.67;55.09;101478.53;4980736;28;97649;-70
2023/07/14 04:15:07;;;;;;;4.50;2.85;;;;;;;21.75;54.87;101478.00;4989039;28;98534;-69
2023/07/14 04:17:33;;;;;;;6.22;2.60;;;;;;;21.84;54.70;101486.28;4981544;28;99065;-69
2023/07/14 04:20:00;;;;;;;3.47;2.47;;;;;;;21.86;54.49;101481.63;4973015;28;99589;-70
2023/07/14 04:22:28;;;;;;;3.25;2.50;;;;;;;21.88;54.19;101485.09;4978891;28;97828;-70
2023/07/14 04:24:54;;;;;;;4.05;2.67;;;;;;;21.85;54.13;101488.00;4981624;28;96944;-70
2023/07/14 04:27:20;;;;;;;16.90;2.88;;;;;;;21.87;54.55;101485.19;4988078;28;97954;-70
2023/07/14 04:29:47;;;;;;;4.03;2.70;;;;;;;22.08;53.72;101494.47;4982303;28;99274;-70
2023/07/14 04:32:15;;;;;;;4.25;3.45;;;;;;;22.09;53.65;101495.31;4975377;28;97547;-69
2023/07/14 04:34:41;;;;;;;7.60;2.72;;;;;;;22.05;53.50;101489.31;4978203;28;99390;-70
2023/07/14 04:37:09;;;;;;;8.77;2.70;;;;;;;22.11;53.72;101493.38;4973121;28;98237;-70
2023/07/14 04:39:36;;;;;;;7.28;3.05;;;;;;;22.17;53.34;101488.44;4973471;28;103129;-70
2023/07/14 04:42:03;;;;;;;4.53;2.35;;;;;;;22.31;53.23;101498.19;4977941;28;98787;-71
2023/07/14 04:44:29;;;;;;;7.07;2.90;;;;;;;22.47;52.76;101501.47;4975643;28;98747;-70
2023/07/14 04:46:58;;;;;;;5.40;3.40;;;;;;;22.49;52.63;101502.22;4980976;28;101963;-71
2023/07/14 04:49:26;;;;;;;5.97;2.65;;;;;;;22.53;52.32;101509.09;4985150;28;97712;-72
2023/07/14 04:51:52;;;;;;;6.20;2.78;;;;;;;22.71;51.85;101511.44;4987874;28;97040;-71
2023/07/14 04:54:19;;;;;;;7.30;2.70;;;;;;;22.69;51.61;101510.66;4987497;28;96947;-71
2023/07/14 04:56:45;;;;;;;4.82;3.03;;;;;;;22.66;51.88;101509.91;4987598;28;99302;-71
2023/07/14 04:59:12;;;;;;;6.00;2.97;;;;;;;22.95;51.06;101509.63;4984952;28;99212;-71
2023/07/14 05:01:38;;;;;;;5.50;2.20;;;;;;;22.83;51.57;101511.41;4983570;28;97171;-72
2023/07/14 05:04:04;;;;;;;6.32;2.47;;;;;;;22.98;51.38;101512.06;4991952;28;96857;-71
2023/07/14 05:06:32;;;;;;;5.88;2.85;;;;;;;23.53;49.71;101514.16;4997431;28;99070;-71
2023/07/14 05:08:59;;;;;;;7.00;2.88;;;;;;;24.28;48.12;101513.63;4983078;28;101688;-71
2023/07/14 05:11:25;;;;;;;4.72;2.70;;;;;;;24.47;46.51;101517.41;4982089;28;96915;-71
2023/07/14 05:13:53;;;;;;;5.25;3.10;;;;;;;24.34;46.38;101515.84;4978462;28;98598;-71
2023/07/14 05:16:20;;;;;;;5.53;2.72;;;;;;;23.69;47.75;101516.53;4976458;28;99696;-69
2023/07/14 05:18:47;;;;;;;5.43;2.83;;;;;;;23.40;48.45;101516.91;4974182;28;99480;-70
2023/07/14 05:21:13;;;;;;;4.13;2.35;;;;;;;23.44;48.81;101522.91;4975441;28;98939;-71
2023/07/14 05:23:41;;;;;;;6.55;3.17;;;;;;;23.37;49.09;101525.22;4983363;28;98480;-70
2023/07/14 05:26:08;;;;;;;6.25;2.90;;;;;;;23.35;48.80;101521.78;4990823;28;99924;-71
2023/07/14 05:28:34;;;;;;;5.22;2.63;;;;;;;23.30;49.27;101517.75;4988456;28;98780;-70
2023/07/14 05:31:00;;;;;;;4.45;2.63;;;;;;;23.57;48.77;101512.06;4983521;28;96939;-70
2023/07/14 05:33:27;;;;;;;6.75;3.10;;;;;;;23.74;48.16;101512.47;4993778;28;97220;-69
2023/07/14 05:35:53;;;;;;;7.53;2.47;;;;;;;23.60;48.71;101512.69;4982545;28;99294;-70
2023/07/14 05:38:20;;;;;;;5.82;2.72;;;;;;;23.60;48.44;101515.38;4983229;28;99977;-69
2023/07/14 05:40:52;;;;;;;5.15;3.20;;;;;;;23.76;48.34;101515.06;4982267;28;96917;-71
2023/07/14 05:43:19;;;;;;;5.70;2.85;;;;;;;24.05;47.37;101519.00;4983255;28;97278;-69
2023/07/14 05:45:47;;;;;;;3.97;2.45;;;;;;;24.26;46.79;101518.28;4990563;28;99229;-69
2023/07/14 05:48:16;;;;;;;3.65;2.33;;;;;;;24.12;47.46;101522.94;4990517;28;97919;-70
2023/07/14 05:50:43;;;;;;;5.40;2.60;;;;;;;24.21;47.25;101514.13;4992162;28;97611;-69
2023/07/14 05:53:10;;;;;;;4.55;2.83;;;;;;;24.21;46.92;101518.66;4972789;28;97196;-71
2023/07/14 05:55:36;;;;;;;5.47;2.35;;;;;;;24.48;46.54;101519.09;4971255;28;98568;-69
2023/07/14 05:58:06;;;;;;;6.25;2.83;;;;;;;24.41;46.33;101517.91;4985740;28;99222;-70
2023/07/14 06:00:38;;;;;;;7.72;2.20;;;;;;;24.67;45.33;101517.63;4983969;28;96841;-70
2023/07/14 06:03:06;;;;;;;5.25;2.58;;;;;;;24.93;44.93;101517.22;4975035;28;98603;-70
2023/07/14 06:05:32;;;;;;;5.32;2.42;;;;;;;25.04;44.04;101516.28;4976153;28;99689;-70
2023/07/14 06:07:59;;;;;;;5.53;2.30;;;;;;;24.95;44.70;101523.31;4976962;28;99092;-70
2023/07/14 06:10:26;;;;;;;3.75;1.98;;;;;;;25.05;43.92;101520.72;4975295;28;98505;-70
2023/07/14 06:12:52;;;;;;;6.28;1.90;;;;;;;25.07;44.17;101526.00;4977795;28;98522;-69
2023/07/14 06:15:20;;;;;;;4.88;2.20;;;;;;;24.90;44.17;101527.41;4974868;28;99117;-69
2023/07/14 06:17:46;;;;;;;8.05;2.00;;;;;;;25.05;43.68;101530.69;4978949;28;98997;-70
2023/07/14 06:20:13;;;;;;;7.60;2.47;;;;;;;25.14;43.46;101532.63;4984690;28;96896;-70
2023/07/14 06:22:40;;;;;;;4.50;2.40;;;;;;;25.30;42.47;101516.78;4984470;28;98476;-69
2023/07/14 06:25:07;;;;;;;6.07;2.15;;;;;;;25.50;42.03;101521.34;4977436;28;98924;-71
2023/07/14 06:27:34;;;;;;;3.38;2.00;;;;;;;25.13;40.80;101528.19;4989801;28;100253;-70
2023/07/14 06:30:00;;;;;;;4.90;2.67;;;;;;;25.19;41.56;101522.28;4994520;28;96758;-71
2023/07/14 06:32:28;;;;;;;6.50;2.25;;;;;;;25.21;42.13;101515.72;4976065;28;98941;-70
2023/07/14 06:34:56;;;;;;;2.88;2.00;;;;;;;25.48;41.49;101519.75;4974690;28;98498;-71
2023/07/14 06:37:24;;;;;;;4.10;2.00;;;;;;;25.44;41.20;101516.47;4975824;28;98882;-71
2023/07/14 06:39:50;;;;;;;7.65;1.92;;;;;;;25.52;40.99;101523.94;4974796;28;98426;-70
2023/07/14 06:42:17;;;;;;;3.20;1.52;;;;;;;25.66;38.86;101516.38;4976786;28;97670;-70
2023/07/14 06:44:44;;;;;;;2.63;1.80;;;;;;;25.84;39.08;101513.91;4978827;28;98026;-70
2023/07/14 06:47:10;;;;;;;3.03;1.60;;;;;;;26.48;38.11;101514.50;4983286;28;101710;-69
2023/07/14 06:49:38;;;;;;;4.13;1.90;;;;;;;26.63;37.44;101508.69;4991989;28;97213;-70
2023/07/14 06:52:05;;;;;;;4.40;1.80;;;;;;;26.70;37.74;101512.53;5000923;28;97427;-70
2023/07/14 06:54:31;;;;;;;6.43;2.03;;;;;;;27.28;36.36;101514.31;4999008;28;98980;-69
2023/07/14 06:56:58;;;;;;;2.58;1.75;;;;;;;27.13;36.72;101509.47;5003901;28;97606;-69
2023/07/14 06:59:25;;;;;;;3.75;1.98;;;;;;;26.73;37.28;101507.69;4991136;28;97056;-69
2023/07/14 07:01:51;;;;;;;3.80;1.63;;;;;;;26.77;37.22;101509.13;4985238;28;96941;-70
2023/07/14 07:04:18;;;;;;;3.28;1.83;;;;;;;26.79;37.40;101512.53;4978177;28;98853;-70
2023/07/14 07:06:45;;;;;;;6.10;1.63;;;;;;;27.50;35.81;101515.03;4978402;28;99326;-71
2023/07/14 07:09:12;;;;;;;4.68;1.95;;;;;;;27.45;35.90;101514.56;4984296;28;96902;-70
2023/07/14 07:11:38;;;;;;;3.40;1.60;;;;;;;27.92;34.82;101513.66;4979336;28;97178;-70
2023/07/14 07:14:05;;;;;;;7.90;1.85;;;;;;;27.47;35.05;101524.31;4977847;28;98902;-70
2023/07/14 07:16:31;;;;;;;7.80;2.40;;;;;;;27.88;35.11;101516.81;4980475;28;98093;-70
2023/07/14 07:18:58;;;;;;;6.78;1.83;;;;;;;27.49;35.19;101525.03;4983860;28;97602;-70
2023/07/14 07:21:24;;;;;;;4.75;1.67;;;;;;;27.07;35.67;101519.03;4975103;28;98828;-71
2023/07/14 07:23:54;;;;;;;8.60;1.63;;;;;;;26.96;35.84;101516.47;4982539;28;98996;-70
2023/07/14 07:26:21;;;;;;;6.18;1.67;;;;;;;27.32;35.20;101510.31;4979547;28;99160;-69
2023/07/14 07:28:47;;;;;;;4.15;1.60;;;;;;;27.10;35.37;101516.06;4980904;28;99520;-70
2023/07/14 07:31:14;;;;;;;4.55;1.77;;;;;;;27.35;34.75;101511.88;4983669;28;99044;-69
2023/07/14 07:33:41;;;;;;;5.38;1.60;;;;;;;27.02;35.77;101512.31;4980237;28;100065;-71
2023/07/14 07:36:15;;;;;;;6.05;1.75;;;;;;;26.95;35.95;101506.63;4979221;28;99447;-69
2023/07/14 07:38:47;;;;;;;3.13;1.95;;;;;;;26.95;36.24;101501.19;4983530;28;97549;-71
2023/07/14 07:41:16;;;;;;;3.90;1.75;;;;;;;26.98;35.91;101500.88;4981305;28;97066;-71
2023/07/14 07:43:43;;;;;;;1.67;1.52;;;;;;;27.51;35.20;101501.28;4979070;28;99229;-69
2023/07/14 07:46:10;;;;;;;5.38;2.13;;;;;;;27.19;35.62;101495.31;4981360;28;98916;-69
2023/07/14 07:48:36;;;;;;;2.75;1.55;;;;;;;27.58;35.23;101494.31;4979079;28;97800;-69
2023/07/14 07:51:04;;;;;;;4.90;1.83;;;;;;;27.78;34.09;101486.97;4989634;28;97049;-70
2023/07/14 07:53:31;;;;;;;2.33;1.52;;;;;;;27.62;34.91;101489.44;4979623;28;99283;-70
2023/07/14 07:55:59;;;;;;;6.25;1.95;;;;;;;28.12;34.04;101489.97;4980384;28;98428;-69
2023/07/14 07:58:27;;;;;;;6.10;1.83;;;;;;;28.17;34.01;101489.56;4974423;28;97795;-71
2023/07/14 08:00:54;;;;;;;3.10;1.58;;;;;;;28.30;33.48;101490.91;4979300;28;97158;-69
2023/07/14 08:03:21;;;;;;;3.00;1.77;;;;;;;28.55;33.44;101483.94;4971682;28;98864;-71
2023/07/14 08:05:48;;;;;;;4.68;2.15;;;;;;;28.59;33.04;101488.03;4978542;28;98736;-64
2023/07/14 08:08:14;;;;;;;2.08;1.65;;;;;;;28.57;33.17;101481.88;4978442;28;98850;-64
2023/07/14 08:10:42;;;;;;;2.60;1.48;;;;;;;28.32;32.90;101482.63;4977452;28;98955;-64
2023/07/14 08:13:09;;;;;;;6.13;1.70;;;;;;;28.18;32.78;101488.56;4975011;28;99014;-65
2023/07/14 08:15:38;;;;;;;4.57;2.00;;;;;;;27.86;33.32;101481.66;4975599;28;99677;-65
2023/07/14 08:18:07;;;;;;;11.52;2.65;;;;;;;28.04;33.07;101485.28;4975175;28;98162;-64
2023/07/14 08:20:34;;;;;;;4.28;1.77;;;;;;;27.72;33.61;101473.97;4975389;28;97860;-63
2023/07/14 08:23:02;;;;;;;3.42;1.45;;;;;;;27.67;33.84;101470.84;4977344;28;98920;-63
2023/07/14 08:25:28;;;;;;;3.72;1.42;;;;;;;27.60;33.97;101480.59;4974138;28;99003;-64
2023/07/14 08:27:54;;;;;;;5.82;1.73;;;;;;;27.49;34.16;101473.44;4974233;28;98412;-63
2023/07/14 08:30:21;;;;;;;4.00;1.58;;;;;;;28.19;33.16;101471.25;4975748;28;97270;-64
2023/07/14 08:32:49;;;;;;;4.75;1.38;;;;;;;27.91;32.97;101468.47;4976369;28;99087;-64
2023/07/14 08:35:16;;;;;;;2.08;1.45;;;;;;;28.20;32.40;101472.97;4972714;28;99526;-65
2023/07/14 08:37:42;;;;;;;4.70;1.40;;;;;;;28.01;32.67;101476.59;4975721;28;97665;-65
2023/07/14 08:40:12;;;;;;;4.25;2.00;;;;;;;28.53;32.00;101469.63;4977125;28;98710;-64
2023/07/14 08:42:45;;;;;;;4.50;1.83;;;;;;;28.80;31.88;101466.03;4976380;28;99048;-64
2023/07/14 08:45:25;;;;;;;2.90;1.27;;;;;;;28.48;31.16;101467.38;4974203;28;99278;-64
2023/07/14 08:48:02;;;;;;;3.42;1.48;;;;;;;28.36;31.82;101467.72;4976934;28;97686;-64
2023/07/14 08:50:30;;;;;;;4.97;1.85;;;;;;;28.65;31.55;101470.25;4974080;28;99541;-64
2023/07/14 08:53:04;;;;;;;4.15;1.38;;;;;;;28.93;31.06;101478.22;4976003;28;99904;-66
2023/07/14 08:55:34;;;;;;;3.65;1.75;;;;;;;28.65;31.11;101475.69;4974519;28;99587;-64
2023/07/14 08:58:05;;;;;;;2.20;1.20;;;;;;;28.53;31.43;101470.47;4977670;28;96934;-65
2023/07/14 09:00:36;;;;;;;3.35;1.50;;;;;;;28.71;31.26;101473.22;4980761;28;97100;-65
2023/07/14 09:03:12;;;;;;;4.53;1.73;;;;;;;28.37;31.54;101474.84;4972946;28;98894;-65
2023/07/14 09:05:42;;;;;;;5.90;1.20;;;;;;;28.18;31.21;101469.53;4974790;28;98782;-66
2023/07/14 09:08:10;;;;;;;2.40;1.50;;;;;;;28.76;30.78;101464.59;4977980;28;96793;-64
2023/07/14 09:10:50;;;;;;;2.45;1.20;;;;;;;28.82;30.95;101464.84;4975465;28;97658;-65
2023/07/14 09:13:28;;;;;;;3.30;1.55;;;;;;;29.00;31.00;101456.69;4985199;28;99184;-64
2023/07/14 09:15:56;;;;;;;3.63;1.55;;;;;;;29.22;30.18;101463.50;4980843;28;98824;-66
2023/07/14 09:18:42;;;;;;;5.10;1.60;;;;;;;28.93;30.12;101459.19;4982804;28;101467;-65
2023/07/14 09:21:17;;;;;;;5.93;1.40;;;;;;;28.69;30.65;101456.19;4980152;28;98963;-65
2023/07/14 09:24:02;;;;;;;3.90;1.58;;;;;;;28.58;31.11;101461.00;4975516;28;99846;-63
2023/07/14 09:26:32;;;;;;;3.67;1.30;;;;;;;28.69;30.32;101450.75;4976529;28;100653;-64
2023/07/14 09:29:01;;;;;;;5.60;1.83;;;;;;;28.49;30.70;101452.75;4983924;28;97684;-64
2023/07/14 09:31:38;;;;;;;3.65;1.42;;;;;;;28.17;30.72;101452.38;4989186;28;97253;-64
2023/07/14 09:34:15;;;;;;;3.80;1.60;;;;;;;28.50;30.14;101448.16;4991613;28;99226;-63
2023/07/14 09:36:42;;;;;;;5.63;1.52;;;;;;;28.93;29.71;101447.47;4980977;28;99216;-64
2023/07/14 09:39:16;;;;;;;3.17;1.77;;;;;;;28.99;29.71;101445.97;4985755;28;96814;-62
2023/07/14 09:41:43;;;;;;;2.72;1.63;;;;;;;29.27;28.98;101442.97;4986729;28;97149;-63
2023/07/14 09:44:11;;;;;;;3.53;1.33;;;;;;;29.27;29.16;101440.25;4993203;28;99373;-64
2023/07/14 09:46:41;;;;;;;4.20;2.30;;;;;;;29.32;29.01;101445.22;4986771;28;98811;-63
2023/07/14 09:49:20;;;;;;;2.60;1.77;;;;;;;29.12;29.26;101443.69;4989179;28;96890;-64
2023/07/14 09:52:01;;;;;;;2.88;1.60;;;;;;;29.31;29.25;101440.78;4984571;28;97259;-64
2023/07/14 09:54:28;;;;;;;2.08;1.45;;;;;;;29.18;28.92;101432.19;4981290;28;99098;-64
2023/07/14 09:57:01;;;;;;;5.43;1.50;;;;;;;29.45;29.24;101433.94;4981765;28;98870;-64
2023/07/14 09:59:28;;;;;;;5.18;1.50;;;;;;;29.53;28.72;101426.69;4973284;28;101035;-64
2023/07/14 10:01:57;;;;;;;2.78;1.08;;;;;;;29.24;27.84;101431.53;4974635;28;97610;-64
2023/07/14 10:04:30;;;;;;;2.15;1.15;;;;;;;28.72;27.93;101431.41;4972674;28;98951;-63
2023/07/14 10:07:31;;;;;;;5.70;1.33;;;;;;;28.52;29.24;101425.25;4974185;28;99444;-63
2023/07/14 10:10:00;;;;;;;2.10;1.20;;;;;;;28.32;30.03;101422.84;4971028;28;98395;-64
2023/07/14 10:12:27;;;;;;;5.80;1.58;;;;;;;28.50;30.29;101420.97;4974025;28;99282;-65
2023/07/14 10:14:54;;;;;;;5.32;1.35;;;;;;;28.46;29.23;101416.88;4973620;28;98148;-64
2023/07/14 10:17:26;;;;;;;4.95;1.15;;;;;;;28.60;29.05;101415.47;4974741;28;101704;-64
2023/07/14 10:19:57;;;;;;;7.95;1.38;;;;;;;29.11;28.51;101410.19;4972824;28;97917;-63
2023/07/14 10:22:25;;;;;;;4.10;2.00;;;;;;;29.70;28.29;101401.25;4975265;28;98937;-65
2023/07/14 10:24:57;;;;;;;4.60;2.40;;;;;;;30.03;27.66;101401.41;4972424;28;101060;-65
2023/07/14 10:27:26;;;;;;;2.65;1.40;;;;;;;30.09;27.45;101398.03;4972480;28;98402;-64
2023/07/14 10:30:15;;;;;;;5.63;1.63;;;;;;;30.57;27.28;101404.66;4974139;28;97310;-65
2023/07/14 10:32:47;;;;;;;7.93;1.52;;;;;;;30.76;27.20;101394.28;4974630;28;98735;-64
2023/07/14 10:35:19;;;;;;;4.53;1.60;;;;;;;30.07;27.54;101397.31;4975151;28;99153;-63
2023/07/14 10:37:52;;;;;;;2.00;1.48;;;;;;;29.92;28.07;101399.00;4974321;28;99377;-63
2023/07/14 10:40:21;;;;;;;5.18;1.63;;;;;;;29.20;29.12;101390.19;4973996;28;97578;-64
2023/07/14 10:42:54;;;;;;;5.13;1.25;;;;;;;29.16;29.35;101387.94;4972479;28;97629;-64
2023/07/14 10:45:21;;;;;;;1.80;1.33;;;;;;;29.25;29.13;101384.25;4974283;28;99191;-63
2023/07/14 10:47:52;;;;;;;4.32;1.70;;;;;;;29.45;28.79;101390.38;4974528;28;98033;-64
2023/07/14 10:50:25;;;;;;;2.50;1.40;;;;;;;29.66;27.35;101386.25;4975174;28;97761;-63
2023/07/14 10:52:59;;;;;;;2.95;1.60;;;;;;;29.83;27.07;101373.53;4975208;28;98388;-65
2023/07/14 10:55:29;;;;;;;3.50;1.50;;;;;;;29.62;28.11;101376.69;4972256;28;99002;-64
2023/07/14 10:57:59;;;;;;;2.10;1.40;;;;;;;29.34;28.93;101374.31;4972165;28;99342;-64
2023/07/14 11:00:32;;;;;;;2.08;1.25;;;;;;;29.20;28.64;101378.47;4975063;28;97636;-64
2023/07/14 11:03:11;;;;;;;2.28;1.42;;;;;;;29.40;28.14;101374.53;4971420;28;98031;-64
2023/07/14 11:05:39;;;;;;;2.97;1.40;;;;;;;29.22;28.22;101373.69;4975700;28;99369;-64
2023/07/14 11:08:10;;;;;;;3.75;1.55;;;;;;;29.18;27.43;101375.88;4975072;28;98845;-64
2023/07/14 11:10:43;;;;;;;2.17;1.30;;;;;;;29.30;27.86;101368.31;4977286;28;97662;-64
2023/07/14 11:13:20;;;;;;;4.90;1.20;;;;;;;28.97;29.24;101377.25;4974632;28;98854;-64
2023/07/14 11:15:54;;;;;;;2.78;1.40;;;;;;;28.87;29.00;101370.06;4973607;28;99236;-64
2023/07/14 11:18:31;;;;;;;2.10;1.60;;;;;;;29.00;29.25;101363.34;4972608;28;99004;-67
2023/07/14 11:21:21;;;;;;;3.53;1.40;;;;;;;28.79;28.92;101360.97;4974189;28;98425;-63
2023/07/14 11:24:00;;;;;;;1.83;1.40;;;;;;;28.91;29.17;101359.69;4972384;28;97504;-64
2023/07/14 11:26:34;;;;;;;3.42;1.30;;;;;;;28.82;28.82;101364.22;4972360;28;99483;-64
2023/07/14 11:29:10;;;;;;;3.50;1.50;;;;;;;28.57;28.89;101362.25;4976283;28;98793;-63
2023/07/14 11:31:44;;;;;;;3.00;1.60;;;;;;;28.86;28.53;101349.31;4974941;28;97659;-64
2023/07/14 11:34:20;;;;;;;3.60;1.75;;;;;;;29.04;28.71;101349.25;4974442;28;98597;-64